This is the latest recevied weather packets stored in our database for station/object DF9PM-13. If no packets are shown the sender has not sent any weather packets the latest 10 day(s).
| Time | Temp. | Humidity | Pressure | Rain* | Wind** | Luminosity | Snow |
|---|---|---|---|---|---|---|---|
| 1777910141 | 20° C | 65% | 1012.7 hPa | - | - | - | - |
| 1777908940 | 20.56° C | 62% | 1012.5 hPa | - | - | - | - |
| 1777908340 | 21.11° C | 60% | 1012.5 hPa | - | - | - | - |
| 1777907140 | 21.67° C | 55% | 1012.3 hPa | - | - | - | - |
| 1777906840 | 21.67° C | 56% | 1012.4 hPa | - | - | - | - |
| 1777906240 | 21.67° C | 53% | 1012.2 hPa | - | - | - | - |
| 1777901139 | 23.33° C | 44% | 1012.8 hPa | - | - | - | - |
| 1777900839 | 22.78° C | 45% | 1012.8 hPa | - | - | - | - |
| 1777900539 | 22.78° C | 44% | 1012.8 hPa | - | - | - | - |
| 1777900239 | 23.33° C | 44% | 1012.8 hPa | - | - | - | - |
| 1777899638 | 22.78° C | 44% | 1013 hPa | - | - | - | - |
| 1777899338 | 22.78° C | 43% | 1012.9 hPa | - | - | - | - |
| 1777898138 | 23.33° C | 44% | 1013.1 hPa | - | - | - | - |
| 1777897837 | 23.89° C | 43% | 1013.1 hPa | - | - | - | - |
| 1777897537 | 23.33° C | 44% | 1013.1 hPa | - | - | - | - |
| 1777897237 | 23.33° C | 47% | 1013.1 hPa | - | - | - | - |
| 1777896937 | 23.33° C | 44% | 1013.2 hPa | - | - | - | - |
| 1777896637 | 23.33° C | 44% | 1013.2 hPa | - | - | - | - |
| 1777896337 | 22.78° C | 44% | 1013.2 hPa | - | - | - | - |
| 1777896037 | 22.78° C | 44% | 1013.2 hPa | - | - | - | - |
| 1777895737 | 22.78° C | 42% | 1013.2 hPa | - | - | - | - |
| 1777895137 | 22.78° C | 44% | 1013.2 hPa | - | - | - | - |
| 1777894537 | 23.89° C | 41% | 1013.3 hPa | - | - | - | - |
| 1777893937 | 23.33° C | 44% | 1013.3 hPa | - | - | - | - |
| 1777893637 | 22.78° C | 45% | 1013.3 hPa | - | - | - | - |
* Rain since midnight (hover to see other rain measurements)
** Current wind speed in m/s (hover to see current wind gust speed)